ENZV/SVG METAR and TAF weather

Enter ICAO airport designator
Station Type Date Time Source
ENZV METAR 2022/12/10 02:20 UTC NOAA

ENZV 100220Z 12005KT CAVOK M05/M11 Q1010


Station Type Date Time Source
ENZV Decoded METAR 2022/12/10 02:20 UTC NOAA

Stavanger / Sola, Norway (ENZV) 58-53N 005-38E 9M
Dec 09, 2022 - 09:20 PM EST / 2022.12.10 0220 UTC
Wind: from the ESE (120 degrees) at 6 MPH (5 KT):0
Visibility: greater than 7 mile(s):0
Temperature: 23 F (-5 C)
Windchill: 15 F (-9 C):1
Dew Point: 12 F (-11 C)
Relative Humidity: 62%
Pressure (altimeter): 29.83 in. Hg (1010 hPa)
ob: ENZV 100220Z 12005KT CAVOK M05/M11 Q1010
cycle: 2

Station Type Date Time Source
ENZV TAF 2022/12/09 18:57 UTC NOAA

TAF ENZV 091700Z 0918/1018 09008KT 9999 FEW030 SCT050

Example: see airport list